sensor_id;sensor_type;location;lat;lon;timestamp;pressure;altitude;pressure_sealevel;temperature;humidity
15932;BME280;8065;49.520;11.284;2023-04-27T00:01:05;97657.38;;;8.69;67.03
15932;BME280;8065;49.520;11.284;2023-04-27T00:03:32;97665.31;;;8.46;69.47
15932;BME280;8065;49.520;11.284;2023-04-27T00:05:59;97659.06;;;8.29;70.66
15932;BME280;8065;49.520;11.284;2023-04-27T00:08:26;97652.13;;;8.33;71.85
15932;BME280;8065;49.520;11.284;2023-04-27T00:10:52;97657.91;;;8.35;70.73
15932;BME280;8065;49.520;11.284;2023-04-27T00:13:19;97657.91;;;8.35;70.56
15932;BME280;8065;49.520;11.284;2023-04-27T00:15:45;97657.31;;;8.38;70.49
15932;BME280;8065;49.520;11.284;2023-04-27T00:18:12;97656.53;;;8.23;72.23
15932;BME280;8065;49.520;11.284;2023-04-27T00:20:38;97655.44;;;8.25;71.64
15932;BME280;8065;49.520;11.284;2023-04-27T00:23:06;97652.78;;;8.25;72.23
15932;BME280;8065;49.520;11.284;2023-04-27T00:25:33;97651.03;;;8.34;71.24
15932;BME280;8065;49.520;11.284;2023-04-27T00:27:59;97641.63;;;8.28;71.10
15932;BME280;8065;49.520;11.284;2023-04-27T00:30:26;97639.50;;;8.52;70.46
15932;BME280;8065;49.520;11.284;2023-04-27T00:32:53;97637.22;;;8.37;72.35
15932;BME280;8065;49.520;11.284;2023-04-27T00:35:19;97638.16;;;8.41;71.68
15932;BME280;8065;49.520;11.284;2023-04-27T00:37:46;97632.00;;;8.32;71.26
15932;BME280;8065;49.520;11.284;2023-04-27T00:40:13;97635.16;;;8.34;71.61
15932;BME280;8065;49.520;11.284;2023-04-27T00:42:40;97625.66;;;8.33;71.48
15932;BME280;8065;49.520;11.284;2023-04-27T00:45:07;97634.63;;;8.32;71.67
15932;BME280;8065;49.520;11.284;2023-04-27T00:47:34;97635.53;;;8.27;71.79
15932;BME280;8065;49.520;11.284;2023-04-27T00:50:02;97638.28;;;8.36;71.54
15932;BME280;8065;49.520;11.284;2023-04-27T00:52:32;97631.59;;;8.38;72.34
15932;BME280;8065;49.520;11.284;2023-04-27T00:55:02;97635.72;;;8.31;71.66
15932;BME280;8065;49.520;11.284;2023-04-27T00:57:30;97634.34;;;8.47;71.68
15932;BME280;8065;49.520;11.284;2023-04-27T00:59:59;97636.59;;;8.40;71.16
15932;BME280;8065;49.520;11.284;2023-04-27T01:02:25;97627.88;;;8.39;71.57
15932;BME280;8065;49.520;11.284;2023-04-27T01:04:52;97636.69;;;8.48;71.03
15932;BME280;8065;49.520;11.284;2023-04-27T01:07:23;97637.28;;;8.45;71.64
15932;BME280;8065;49.520;11.284;2023-04-27T01:09:50;97634.94;;;8.44;71.41
15932;BME280;8065;49.520;11.284;2023-04-27T01:12:16;97632.41;;;8.39;70.80
15932;BME280;8065;49.520;11.284;2023-04-27T01:14:44;97635.16;;;8.34;70.60
15932;BME280;8065;49.520;11.284;2023-04-27T01:17:11;97638.47;;;8.39;69.89
15932;BME280;8065;49.520;11.284;2023-04-27T01:19:38;97642.59;;;8.32;71.22
15932;BME280;8065;49.520;11.284;2023-04-27T01:22:04;97634.97;;;8.16;71.37
15932;BME280;8065;49.520;11.284;2023-04-27T01:24:32;97647.81;;;8.09;71.01
15932;BME280;8065;49.520;11.284;2023-04-27T01:26:59;97646.41;;;8.26;71.32
15932;BME280;8065;49.520;11.284;2023-04-27T01:29:25;97642.22;;;8.25;71.57
15932;BME280;8065;49.520;11.284;2023-04-27T01:31:52;97637.28;;;8.32;70.78
15932;BME280;8065;49.520;11.284;2023-04-27T01:34:19;97631.78;;;8.42;71.01
15932;BME280;8065;49.520;11.284;2023-04-27T01:36:45;97636.03;;;8.29;71.37
15932;BME280;8065;49.520;11.284;2023-04-27T01:39:11;97631.91;;;8.37;71.97
15932;BME280;8065;49.520;11.284;2023-04-27T01:41:39;97635.13;;;8.47;71.94
15932;BME280;8065;49.520;11.284;2023-04-27T01:44:06;97633.66;;;8.41;71.08
15932;BME280;8065;49.520;11.284;2023-04-27T01:46:32;97632.28;;;8.30;71.91
15932;BME280;8065;49.520;11.284;2023-04-27T01:48:59;97638.78;;;8.24;72.87
15932;BME280;8065;49.520;11.284;2023-04-27T01:51:25;97641.22;;;8.20;72.92
15932;BME280;8065;49.520;11.284;2023-04-27T01:53:52;97643.78;;;8.26;72.82
15932;BME280;8065;49.520;11.284;2023-04-27T01:56:18;97634.97;;;8.16;73.42
15932;BME280;8065;49.520;11.284;2023-04-27T01:58:46;97634.97;;;8.16;72.69
15932;BME280;8065;49.520;11.284;2023-04-27T02:01:12;97637.50;;;8.21;73.14
15932;BME280;8065;49.520;11.284;2023-04-27T02:03:39;97642.31;;;8.19;72.58
15932;BME280;8065;49.520;11.284;2023-04-27T02:06:06;97628.59;;;8.17;72.71
15932;BME280;8065;49.520;11.284;2023-04-27T02:08:33;97630.16;;;8.18;72.94
15932;BME280;8065;49.520;11.284;2023-04-27T02:11:00;97639.66;;;8.19;73.13
15932;BME280;8065;49.520;11.284;2023-04-27T02:13:26;97639.00;;;8.14;72.66
15932;BME280;8065;49.520;11.284;2023-04-27T02:15:54;97634.16;;;8.30;71.64
15932;BME280;8065;49.520;11.284;2023-04-27T02:18:21;97639.94;;;8.32;71.07
15932;BME280;8065;49.520;11.284;2023-04-27T02:20:48;97633.59;;;8.33;71.17
15932;BME280;8065;49.520;11.284;2023-04-27T02:23:15;97640.03;;;8.27;72.27
15932;BME280;8065;49.520;11.284;2023-04-27T02:25:41;97632.09;;;8.27;70.75
15932;BME280;8065;49.520;11.284;2023-04-27T02:28:10;97635.94;;;8.34;71.20
15932;BME280;8065;49.520;11.284;2023-04-27T02:30:37;97637.88;;;8.29;71.83
15932;BME280;8065;49.520;11.284;2023-04-27T02:33:05;97639.84;;;8.37;70.68
15932;BME280;8065;49.520;11.284;2023-04-27T02:35:31;97648.28;;;8.39;70.98
15932;BME280;8065;49.520;11.284;2023-04-27T02:37:58;97640.81;;;8.41;70.68
15932;BME280;8065;49.520;11.284;2023-04-27T02:40:24;97636.31;;;8.41;71.08
15932;BME280;8065;49.520;11.284;2023-04-27T02:42:51;97643.34;;;8.46;71.59
15932;BME280;8065;49.520;11.284;2023-04-27T02:45:17;97650.41;;;8.50;71.65
15932;BME280;8065;49.520;11.284;2023-04-27T02:47:44;97646.13;;;8.41;71.97
15932;BME280;8065;49.520;11.284;2023-04-27T02:50:12;97651.03;;;8.34;71.90
15932;BME280;8065;49.520;11.284;2023-04-27T02:52:38;97650.38;;;8.14;72.92
15932;BME280;8065;49.520;11.284;2023-04-27T02:55:05;97651.06;;;8.06;72.42
15932;BME280;8065;49.520;11.284;2023-04-27T02:57:32;97644.78;;;8.02;73.20
15932;BME280;8065;49.520;11.284;2023-04-27T02:59:58;97648.03;;;7.99;72.89
15932;BME280;8065;49.520;11.284;2023-04-27T03:02:25;97652.84;;;7.97;72.34
15932;BME280;8065;49.520;11.284;2023-04-27T03:04:51;97655.19;;;7.99;73.53
15932;BME280;8065;49.520;11.284;2023-04-27T03:07:21;97653.44;;;7.94;73.56
15932;BME280;8065;49.520;11.284;2023-04-27T03:09:47;97657.16;;;7.93;73.10
15932;BME280;8065;49.520;11.284;2023-04-27T03:12:14;97654.50;;;7.93;73.25
15932;BME280;8065;49.520;11.284;2023-04-27T03:14:40;97643.25;;;7.87;73.95
15932;BME280;8065;49.520;11.284;2023-04-27T03:17:07;97649.31;;;7.88;73.01
15932;BME280;8065;49.520;11.284;2023-04-27T03:19:33;97652.69;;;7.80;74.41
15932;BME280;8065;49.520;11.284;2023-04-27T03:22:00;97652.69;;;7.80;74.06
15932;BME280;8065;49.520;11.284;2023-04-27T03:24:27;97655.78;;;7.82;74.09
15932;BME280;8065;49.520;11.284;2023-04-27T03:26:55;97658.72;;;7.80;74.32
15932;BME280;8065;49.520;11.284;2023-04-27T03:29:21;97660.63;;;7.80;73.86
15932;BME280;8065;49.520;11.284;2023-04-27T03:31:48;97665.47;;;7.86;73.76
15932;BME280;8065;49.520;11.284;2023-04-27T03:34:14;97660.78;;;7.83;73.17
15932;BME280;8065;49.520;11.284;2023-04-27T03:36:41;97669.69;;;7.87;74.22
15932;BME280;8065;49.520;11.284;2023-04-27T03:39:07;97662.66;;;7.83;73.61
15932;BME280;8065;49.520;11.284;2023-04-27T03:41:35;97661.50;;;7.75;74.24
15932;BME280;8065;49.520;11.284;2023-04-27T03:44:01;97660.81;;;7.70;74.32
15932;BME280;8065;49.520;11.284;2023-04-27T03:46:28;97662.00;;;7.77;74.05
15932;BME280;8065;49.520;11.284;2023-04-27T03:48:54;97659.75;;;7.71;74.25
15932;BME280;8065;49.520;11.284;2023-04-27T03:51:21;97666.50;;;7.77;74.72
15932;BME280;8065;49.520;11.284;2023-04-27T03:53:47;97676.84;;;7.87;74.65
15932;BME280;8065;49.520;11.284;2023-04-27T03:56:14;97669.16;;;7.77;74.54
15932;BME280;8065;49.520;11.284;2023-04-27T03:58:42;97678.34;;;7.79;74.53
15932;BME280;8065;49.520;11.284;2023-04-27T04:01:08;97678.41;;;7.88;73.42
15932;BME280;8065;49.520;11.284;2023-04-27T04:03:35;97682.63;;;7.89;73.21
15932;BME280;8065;49.520;11.284;2023-04-27T04:06:01;97686.94;;;7.99;73.40
15932;BME280;8065;49.520;11.284;2023-04-27T04:08:28;97682.63;;;7.89;73.68
15932;BME280;8065;49.520;11.284;2023-04-27T04:10:57;97689.09;;;7.97;73.71
15932;BME280;8065;49.520;11.284;2023-04-27T04:13:23;97687.72;;;7.99;72.94
15932;BME280;8065;49.520;11.284;2023-04-27T04:15:59;97688.72;;;7.89;73.97
15932;BME280;8065;49.520;11.284;2023-04-27T04:18:25;97693.31;;;7.84;75.10
15932;BME280;8065;49.520;11.284;2023-04-27T04:20:52;97694.69;;;7.81;74.90
15932;BME280;8065;49.520;11.284;2023-04-27T04:23:18;97691.88;;;7.78;74.89
15932;BME280;8065;49.520;11.284;2023-04-27T04:25:45;97692.38;;;7.80;74.75
15932;BME280;8065;49.520;11.284;2023-04-27T04:28:12;97689.22;;;7.78;74.48
15932;BME280;8065;49.520;11.284;2023-04-27T04:30:38;97680.66;;;7.81;75.05
15932;BME280;8065;49.520;11.284;2023-04-27T04:33:06;97671.28;;;7.75;75.21
15932;BME280;8065;49.520;11.284;2023-04-27T04:35:36;97674.19;;;7.87;74.54
15932;BME280;8065;49.520;11.284;2023-04-27T04:38:03;97674.59;;;7.94;74.72
15932;BME280;8065;49.520;11.284;2023-04-27T04:40:30;97677.53;;;8.06;74.38
15932;BME280;8065;49.520;11.284;2023-04-27T04:42:56;97677.31;;;8.16;73.57
15932;BME280;8065;49.520;11.284;2023-04-27T04:45:22;97681.44;;;8.22;73.54
15932;BME280;8065;49.520;11.284;2023-04-27T04:47:49;97680.16;;;8.20;73.25
15932;BME280;8065;49.520;11.284;2023-04-27T04:50:17;97686.13;;;8.26;73.93
15932;BME280;8065;49.520;11.284;2023-04-27T04:52:43;97687.88;;;8.30;72.41
15932;BME280;8065;49.520;11.284;2023-04-27T04:55:10;97697.50;;;8.40;72.20
15932;BME280;8065;49.520;11.284;2023-04-27T04:57:36;97690.63;;;8.39;72.54
15932;BME280;8065;49.520;11.284;2023-04-27T05:00:04;97689.94;;;8.47;71.61
15932;BME280;8065;49.520;11.284;2023-04-27T05:02:36;97683.38;;;8.44;72.38
15932;BME280;8065;49.520;11.284;2023-04-27T05:05:03;97687.88;;;8.44;71.23
15932;BME280;8065;49.520;11.284;2023-04-27T05:07:31;97682.97;;;8.51;71.55
15932;BME280;8065;49.520;11.284;2023-04-27T05:09:58;97693.44;;;8.56;70.53
15932;BME280;8065;49.520;11.284;2023-04-27T05:12:25;97686.16;;;8.62;70.95
15932;BME280;8065;49.520;11.284;2023-04-27T05:14:51;97701.91;;;8.67;71.11
15932;BME280;8065;49.520;11.284;2023-04-27T05:17:18;97695.13;;;8.74;71.33
15932;BME280;8065;49.520;11.284;2023-04-27T05:19:44;97695.00;;;8.79;70.58
15932;BME280;8065;49.520;11.284;2023-04-27T05:22:11;97691.94;;;8.64;70.22
15932;BME280;8065;49.520;11.284;2023-04-27T05:24:39;97706.03;;;8.73;69.76
15932;BME280;8065;49.520;11.284;2023-04-27T05:27:05;97700.91;;;8.76;69.55
15932;BME280;8065;49.520;11.284;2023-04-27T05:29:32;97701.75;;;8.85;69.55
15932;BME280;8065;49.520;11.284;2023-04-27T05:31:58;97708.50;;;8.92;69.96
15932;BME280;8065;49.520;11.284;2023-04-27T05:34:24;97708.50;;;8.92;68.91
15932;BME280;8065;49.520;11.284;2023-04-27T05:36:51;97704.19;;;8.96;69.58
15932;BME280;8065;49.520;11.284;2023-04-27T05:39:17;97705.91;;;9.00;69.55
15932;BME280;8065;49.520;11.284;2023-04-27T05:41:45;97704.91;;;9.10;69.88
15932;BME280;8065;49.520;11.284;2023-04-27T05:44:12;97710.38;;;9.13;69.63
15932;BME280;8065;49.520;11.284;2023-04-27T05:46:38;97715.97;;;9.12;69.01
15932;BME280;8065;49.520;11.284;2023-04-27T05:49:05;97722.38;;;9.11;68.99
15932;BME280;8065;49.520;11.284;2023-04-27T05:51:31;97721.53;;;9.24;68.96
15932;BME280;8065;49.520;11.284;2023-04-27T05:53:58;97723.09;;;9.25;68.55
15932;BME280;8065;49.520;11.284;2023-04-27T05:56:26;97725.25;;;9.23;69.13
15932;BME280;8065;49.520;11.284;2023-04-27T05:58:53;97722.91;;;9.22;68.36
15932;BME280;8065;49.520;11.284;2023-04-27T06:01:20;97722.22;;;9.38;68.57
15932;BME280;8065;49.520;11.284;2023-04-27T06:03:47;97720.59;;;9.51;67.78
15932;BME280;8065;49.520;11.284;2023-04-27T06:06:14;97723.25;;;9.60;68.06
15932;BME280;8065;49.520;11.284;2023-04-27T06:08:40;97724.81;;;9.61;67.83
15932;BME280;8065;49.520;11.284;2023-04-27T06:11:07;97723.25;;;9.60;68.60
15932;BME280;8065;49.520;11.284;2023-04-27T06:13:33;97730.00;;;9.66;67.96
15932;BME280;8065;49.520;11.284;2023-04-27T06:16:01;97732.38;;;9.76;67.80
15932;BME280;8065;49.520;11.284;2023-04-27T06:18:28;97730.81;;;9.75;66.46
15932;BME280;8065;49.520;11.284;2023-04-27T06:20:57;97723.38;;;9.85;66.90
15932;BME280;8065;49.520;11.284;2023-04-27T06:23:24;97727.25;;;9.79;66.14
15932;BME280;8065;49.520;11.284;2023-04-27T06:25:51;97713.75;;;9.98;65.23
15932;BME280;8065;49.520;11.284;2023-04-27T06:28:17;97726.72;;;10.00;66.45
15932;BME280;8065;49.520;11.284;2023-04-27T06:30:44;97728.94;;;10.15;65.58
15932;BME280;8065;49.520;11.284;2023-04-27T06:33:12;97731.19;;;10.22;65.09
15932;BME280;8065;49.520;11.284;2023-04-27T06:35:38;97727.00;;;10.38;64.78
15932;BME280;8065;49.520;11.284;2023-04-27T06:38:05;97731.56;;;10.06;65.54
15932;BME280;8065;49.520;11.284;2023-04-27T06:40:31;97722.22;;;10.17;64.68
15932;BME280;8065;49.520;11.284;2023-04-27T06:42:58;97729.03;;;10.49;64.29
15932;BME280;8065;49.520;11.284;2023-04-27T06:45:24;97736.69;;;10.51;64.32
15932;BME280;8065;49.520;11.284;2023-04-27T06:47:51;97732.94;;;10.52;63.53
15932;BME280;8065;49.520;11.284;2023-04-27T06:50:19;97732.63;;;10.62;64.23
15932;BME280;8065;49.520;11.284;2023-04-27T06:52:45;97730.75;;;10.54;63.12
15932;BME280;8065;49.520;11.284;2023-04-27T06:55:11;97730.47;;;10.81;62.24
15932;BME280;8065;49.520;11.284;2023-04-27T06:57:38;97731.56;;;10.98;62.11
15932;BME280;8065;49.520;11.284;2023-04-27T07:00:06;97736.88;;;11.15;61.83
15932;BME280;8065;49.520;11.284;2023-04-27T07:02:33;97739.84;;;10.96;61.77
15932;BME280;8065;49.520;11.284;2023-04-27T07:04:59;97738.44;;;10.99;61.88
15932;BME280;8065;49.520;11.284;2023-04-27T07:07:27;97735.16;;;11.02;61.93
15932;BME280;8065;49.520;11.284;2023-04-27T07:09:54;97727.03;;;10.90;60.39
15932;BME280;8065;49.520;11.284;2023-04-27T07:12:20;97728.88;;;11.15;60.01
15932;BME280;8065;49.520;11.284;2023-04-27T07:14:47;97731.41;;;11.11;60.84
15932;BME280;8065;49.520;11.284;2023-04-27T07:17:15;97730.72;;;11.40;60.10
15932;BME280;8065;49.520;11.284;2023-04-27T07:19:41;97725.50;;;11.53;59.63
15932;BME280;8065;49.520;11.284;2023-04-27T07:22:08;97735.00;;;11.71;60.04
15932;BME280;8065;49.520;11.284;2023-04-27T07:24:37;97735.00;;;11.71;58.92
15932;BME280;8065;49.520;11.284;2023-04-27T07:27:03;97730.97;;;11.65;58.53
15932;BME280;8065;49.520;11.284;2023-04-27T07:29:30;97723.59;;;11.70;58.44
15932;BME280;8065;49.520;11.284;2023-04-27T07:31:56;97734.69;;;11.81;59.04
15932;BME280;8065;49.520;11.284;2023-04-27T07:34:23;97736.41;;;11.86;58.67
15932;BME280;8065;49.520;11.284;2023-04-27T07:36:50;97734.53;;;12.15;58.63
15932;BME280;8065;49.520;11.284;2023-04-27T07:39:18;97735.28;;;11.95;58.67
15932;BME280;8065;49.520;11.284;2023-04-27T07:41:46;97740.69;;;12.37;58.18
15932;BME280;8065;49.520;11.284;2023-04-27T07:44:14;97736.69;;;12.52;57.25
15932;BME280;8065;49.520;11.284;2023-04-27T07:46:40;97737.91;;;12.54;55.66
15932;BME280;8065;49.520;11.284;2023-04-27T07:49:07;97745.81;;;12.71;56.50
15932;BME280;8065;49.520;11.284;2023-04-27T07:51:34;97738.97;;;12.83;56.53
15932;BME280;8065;49.520;11.284;2023-04-27T07:54:01;97741.13;;;12.89;55.66
15932;BME280;8065;49.520;11.284;2023-04-27T07:56:28;97747.53;;;13.09;55.42
15932;BME280;8065;49.520;11.284;2023-04-27T07:58:56;97744.66;;;13.35;55.54
15932;BME280;8065;49.520;11.284;2023-04-27T08:01:22;97743.63;;;13.60;53.71
15932;BME280;8065;49.520;11.284;2023-04-27T08:03:49;97748.78;;;13.77;53.31
15932;BME280;8065;49.520;11.284;2023-04-27T08:06:17;97753.78;;;13.79;54.04
15932;BME280;8065;49.520;11.284;2023-04-27T08:08:43;97747.00;;;13.94;53.89
15932;BME280;8065;49.520;11.284;2023-04-27T08:11:10;97752.56;;;14.01;53.08
15932;BME280;8065;49.520;11.284;2023-04-27T08:13:37;97754.56;;;13.92;52.18
15932;BME280;8065;49.520;11.284;2023-04-27T08:16:05;97750.47;;;14.19;51.71
15932;BME280;8065;49.520;11.284;2023-04-27T08:18:31;97752.13;;;14.35;51.78
15932;BME280;8065;49.520;11.284;2023-04-27T08:20:58;97750.91;;;14.21;50.22
15932;BME280;8065;49.520;11.284;2023-04-27T08:23:25;97753.59;;;14.45;49.89
15932;BME280;8065;49.520;11.284;2023-04-27T08:25:53;97755.03;;;14.55;49.89
15932;BME280;8065;49.520;11.284;2023-04-27T08:28:19;97748.69;;;14.59;49.46
15932;BME280;8065;49.520;11.284;2023-04-27T08:30:47;97752.94;;;14.88;48.18
15932;BME280;8065;49.520;11.284;2023-04-27T08:33:15;97749.47;;;15.00;47.89
15932;BME280;8065;49.520;11.284;2023-04-27T08:35:41;97749.84;;;15.14;47.45
15932;BME280;8065;49.520;11.284;2023-04-27T08:38:08;97758.38;;;15.04;46.43
15932;BME280;8065;49.520;11.284;2023-04-27T08:40:34;97748.22;;;15.37;46.77
15932;BME280;8065;49.520;11.284;2023-04-27T08:43:00;97747.47;;;15.53;45.61
15932;BME280;8065;49.520;11.284;2023-04-27T08:45:27;97739.97;;;15.74;45.79
15932;BME280;8065;49.520;11.284;2023-04-27T08:47:54;97737.31;;;15.90;45.93
15932;BME280;8065;49.520;11.284;2023-04-27T08:50:22;97734.97;;;15.57;44.69
15932;BME280;8065;49.520;11.284;2023-04-27T08:52:50;97738.88;;;15.91;45.34
15932;BME280;8065;49.520;11.284;2023-04-27T08:55:17;97733.34;;;15.99;45.12
15932;BME280;8065;49.520;11.284;2023-04-27T08:57:53;97731.84;;;16.18;44.92
15932;BME280;8065;49.520;11.284;2023-04-27T09:00:20;97736.69;;;16.28;45.44
15932;BME280;8065;49.520;11.284;2023-04-27T09:02:48;97733.06;;;16.55;45.56
15932;BME280;8065;49.520;11.284;2023-04-27T09:05:15;97730.09;;;16.76;45.30
15932;BME280;8065;49.520;11.284;2023-04-27T09:07:54;97733.47;;;16.73;44.48
15932;BME280;8065;49.520;11.284;2023-04-27T09:10:21;97733.69;;;16.84;45.08
15932;BME280;8065;49.520;11.284;2023-04-27T09:12:54;97730.03;;;17.11;43.92
15932;BME280;8065;49.520;11.284;2023-04-27T09:15:21;97732.16;;;17.21;43.68
15932;BME280;8065;49.520;11.284;2023-04-27T09:17:52;97728.75;;;17.05;43.69
15932;BME280;8065;49.520;11.284;2023-04-27T09:20:18;97727.44;;;17.37;43.22
15932;BME280;8065;49.520;11.284;2023-04-27T09:22:48;97729.69;;;17.55;43.42
15932;BME280;8065;49.520;11.284;2023-04-27T09:25:22;97730.50;;;17.78;44.27
15932;BME280;8065;49.520;11.284;2023-04-27T09:27:48;97722.50;;;18.05;43.34
15932;BME280;8065;49.520;11.284;2023-04-27T09:30:15;97718.72;;;18.09;41.50
15932;BME280;8065;49.520;11.284;2023-04-27T09:32:49;97713.50;;;18.20;41.22
15932;BME280;8065;49.520;11.284;2023-04-27T09:35:20;97706.34;;;18.31;41.13
15932;BME280;8065;49.520;11.284;2023-04-27T09:37:48;97699.94;;;18.39;40.73
15932;BME280;8065;49.520;11.284;2023-04-27T09:40:17;97697.34;;;18.46;40.75
15932;BME280;8065;49.520;11.284;2023-04-27T09:42:44;97690.41;;;18.45;41.10
15932;BME280;8065;49.520;11.284;2023-04-27T09:45:12;97692.13;;;18.87;41.72
15932;BME280;8065;49.520;11.284;2023-04-27T09:47:39;97686.72;;;19.20;41.73
15932;BME280;8065;49.520;11.284;2023-04-27T09:50:07;97677.56;;;19.28;40.67
15932;BME280;8065;49.520;11.284;2023-04-27T09:52:34;97677.34;;;19.44;40.56
15932;BME280;8065;49.520;11.284;2023-04-27T09:55:03;97677.28;;;19.41;38.90
15932;BME280;8065;49.520;11.284;2023-04-27T09:57:36;97675.06;;;19.50;40.96
15932;BME280;8065;49.520;11.284;2023-04-27T10:00:13;97669.22;;;19.41;40.22
15932;BME280;8065;49.520;11.284;2023-04-27T10:02:55;97669.06;;;19.63;39.49
15932;BME280;8065;49.520;11.284;2023-04-27T10:05:39;97669.94;;;19.75;39.02
15932;BME280;8065;49.520;11.284;2023-04-27T10:08:08;97659.03;;;19.60;39.22
15932;BME280;8065;49.520;11.284;2023-04-27T10:10:46;97652.25;;;18.99;39.44
15932;BME280;8065;49.520;11.284;2023-04-27T10:13:20;97650.78;;;19.06;40.70
15932;BME280;8065;49.520;11.284;2023-04-27T10:15:47;97663.09;;;18.73;41.09
15932;BME280;8065;49.520;11.284;2023-04-27T10:18:24;97665.19;;;18.87;41.49
15932;BME280;8065;49.520;11.284;2023-04-27T10:20:51;97655.59;;;19.26;42.22
15932;BME280;8065;49.520;11.284;2023-04-27T10:23:24;97661.00;;;19.67;42.33
15932;BME280;8065;49.520;11.284;2023-04-27T10:25:53;97659.22;;;19.85;40.07
15932;BME280;8065;49.520;11.284;2023-04-27T10:28:21;97659.19;;;19.82;39.25
15932;BME280;8065;49.520;11.284;2023-04-27T10:30:48;97667.66;;;19.80;39.25
15932;BME280;8065;49.520;11.284;2023-04-27T10:33:16;97658.91;;;19.97;40.23
15932;BME280;8065;49.520;11.284;2023-04-27T10:35:44;97655.69;;;19.78;39.68
15932;BME280;8065;49.520;11.284;2023-04-27T10:38:14;97665.44;;;19.93;40.43
15932;BME280;8065;49.520;11.284;2023-04-27T10:40:43;97668.25;;;20.11;39.71
15932;BME280;8065;49.520;11.284;2023-04-27T10:43:12;97663.28;;;20.20;39.17
15932;BME280;8065;49.520;11.284;2023-04-27T10:45:40;97659.09;;;20.26;38.36
15932;BME280;8065;49.520;11.284;2023-04-27T10:48:07;97650.94;;;20.19;39.35
15932;BME280;8065;49.520;11.284;2023-04-27T10:50:35;97654.00;;;20.14;39.79
15932;BME280;8065;49.520;11.284;2023-04-27T10:53:04;97653.47;;;19.94;39.05
15932;BME280;8065;49.520;11.284;2023-04-27T10:55:31;97651.59;;;20.02;39.99
15932;BME280;8065;49.520;11.284;2023-04-27T10:57:58;97647.00;;;20.06;38.85
15932;BME280;8065;49.520;11.284;2023-04-27T11:00:28;97647.72;;;19.92;39.98
15932;BME280;8065;49.520;11.284;2023-04-27T11:02:57;97646.72;;;19.63;39.01
15932;BME280;8065;49.520;11.284;2023-04-27T11:05:25;97647.41;;;19.53;38.99
15932;BME280;8065;49.520;11.284;2023-04-27T11:08:03;97642.19;;;18.93;39.78
15932;BME280;8065;49.520;11.284;2023-04-27T11:10:31;97642.19;;;18.93;38.98
15932;BME280;8065;49.520;11.284;2023-04-27T11:12:58;97643.00;;;19.38;38.66
15932;BME280;8065;49.520;11.284;2023-04-27T11:15:24;97635.88;;;19.56;38.32
15932;BME280;8065;49.520;11.284;2023-04-27T11:18:03;97633.16;;;19.15;38.97
15932;BME280;8065;49.520;11.284;2023-04-27T11:20:29;97634.00;;;19.63;39.49
15932;BME280;8065;49.520;11.284;2023-04-27T11:22:56;97636.94;;;19.92;39.63
15932;BME280;8065;49.520;11.284;2023-04-27T11:25:26;97633.97;;;20.15;39.69
15932;BME280;8065;49.520;11.284;2023-04-27T11:27:53;97638.69;;;20.32;39.57
15932;BME280;8065;49.520;11.284;2023-04-27T11:30:21;97641.84;;;20.41;38.89
15932;BME280;8065;49.520;11.284;2023-04-27T11:32:48;97647.94;;;20.31;39.49
15932;BME280;8065;49.520;11.284;2023-04-27T11:35:16;97641.53;;;19.95;39.67
15932;BME280;8065;49.520;11.284;2023-04-27T11:37:43;97645.34;;;19.83;39.50
15932;BME280;8065;49.520;11.284;2023-04-27T11:40:12;97649.88;;;19.31;40.60
15932;BME280;8065;49.520;11.284;2023-04-27T11:42:39;97653.28;;;19.25;39.99
15932;BME280;8065;49.520;11.284;2023-04-27T11:45:11;97653.31;;;19.28;41.05
15932;BME280;8065;49.520;11.284;2023-04-27T11:47:37;97641.72;;;19.24;41.31
15932;BME280;8065;49.520;11.284;2023-04-27T11:50:07;97635.88;;;19.56;40.70
15932;BME280;8065;49.520;11.284;2023-04-27T11:52:36;97644.94;;;19.81;40.78
15932;BME280;8065;49.520;11.284;2023-04-27T11:55:04;97638.28;;;19.68;39.37
15932;BME280;8065;49.520;11.284;2023-04-27T11:57:34;97646.56;;;19.93;39.22
15932;BME280;8065;49.520;11.284;2023-04-27T12:00:03;97637.22;;;20.38;39.94
15932;BME280;8065;49.520;11.284;2023-04-27T12:02:35;97636.59;;;20.70;39.42
15932;BME280;8065;49.520;11.284;2023-04-27T12:05:02;97641.63;;;20.75;37.92
15932;BME280;8065;49.520;11.284;2023-04-27T12:07:28;97646.25;;;20.85;37.96
15932;BME280;8065;49.520;11.284;2023-04-27T12:09:56;97644.97;;;20.47;37.44
15932;BME280;8065;49.520;11.284;2023-04-27T12:12:23;97639.63;;;19.95;37.43
15932;BME280;8065;49.520;11.284;2023-04-27T12:14:50;97633.94;;;20.11;37.74
15932;BME280;8065;49.520;11.284;2023-04-27T12:17:17;97637.03;;;20.10;38.27
15932;BME280;8065;49.520;11.284;2023-04-27T12:19:43;97637.69;;;19.92;38.22
15932;BME280;8065;49.520;11.284;2023-04-27T12:22:10;97633.28;;;19.70;38.03
15932;BME280;8065;49.520;11.284;2023-04-27T12:24:37;97630.78;;;19.98;38.43
15932;BME280;8065;49.520;11.284;2023-04-27T12:27:04;97625.75;;;19.46;38.40
15932;BME280;8065;49.520;11.284;2023-04-27T12:29:31;97623.41;;;19.88;38.30
15932;BME280;8065;49.520;11.284;2023-04-27T12:31:58;97624.00;;;20.26;38.12
15932;BME280;8065;49.520;11.284;2023-04-27T12:34:25;97616.06;;;20.54;38.84
15932;BME280;8065;49.520;11.284;2023-04-27T12:36:52;97614.25;;;20.80;38.67
15932;BME280;8065;49.520;11.284;2023-04-27T12:39:20;97615.06;;;21.02;38.91
15932;BME280;8065;49.520;11.284;2023-04-27T12:41:48;97619.31;;;21.06;37.37
15932;BME280;8065;49.520;11.284;2023-04-27T12:44:17;97620.53;;;21.23;37.16
15932;BME280;8065;49.520;11.284;2023-04-27T12:46:44;97616.19;;;20.90;37.20
15932;BME280;8065;49.520;11.284;2023-04-27T12:49:12;97621.22;;;21.02;37.08
15932;BME280;8065;49.520;11.284;2023-04-27T12:51:39;97622.75;;;21.00;37.03
15932;BME280;8065;49.520;11.284;2023-04-27T12:54:07;97623.94;;;21.09;36.86
15932;BME280;8065;49.520;11.284;2023-04-27T12:56:34;97619.28;;;20.99;36.17
15932;BME280;8065;49.520;11.284;2023-04-27T12:59:01;97624.69;;;20.99;37.21
15932;BME280;8065;49.520;11.284;2023-04-27T13:01:32;97621.22;;;21.06;37.30
15932;BME280;8065;49.520;11.284;2023-04-27T13:04:00;97617.75;;;21.02;38.34
15932;BME280;8065;49.520;11.284;2023-04-27T13:06:27;97614.69;;;21.07;38.12